createdAt,value
2018-12-03T00:01:33.319Z,24.30
2018-12-03T00:04:21.039Z,24.83
2018-12-03T00:06:49.655Z,31.40
2018-12-03T00:09:18.223Z,27.30
2018-12-03T00:11:46.906Z,26.53
2018-12-03T00:14:15.343Z,28.30
2018-12-03T00:16:44.331Z,24.77
2018-12-03T00:19:12.962Z,27.97
2018-12-03T00:21:42.295Z,28.10
2018-12-03T00:24:10.738Z,31.20
2018-12-03T00:26:39.628Z,23.60
2018-12-03T00:29:08.104Z,23.57
2018-12-03T00:31:36.539Z,27.10
2018-12-03T00:34:05.034Z,30.00
2018-12-03T00:36:33.508Z,25.40
2018-12-03T00:39:02.051Z,25.83
2018-12-03T00:41:30.806Z,39.20
2018-12-03T00:43:59.459Z,26.47
2018-12-03T00:46:27.967Z,32.00
2018-12-03T00:48:56.427Z,30.47
2018-12-03T00:51:24.919Z,27.13
2018-12-03T00:53:53.451Z,24.80
2018-12-03T00:56:21.908Z,25.17
2018-12-03T00:58:50.365Z,24.07
2018-12-03T01:01:18.856Z,22.90
2018-12-03T01:03:47.375Z,29.10
2018-12-03T01:06:15.819Z,35.90
2018-12-03T01:08:44.340Z,24.63
2018-12-03T01:11:12.815Z,23.10
2018-12-03T01:13:41.315Z,24.73
2018-12-03T01:16:09.786Z,21.47
2018-12-03T01:18:38.195Z,27.57
2018-12-03T01:21:06.695Z,23.87
2018-12-03T01:23:35.187Z,28.10
2018-12-03T01:26:03.691Z,24.07
2018-12-03T01:28:32.131Z,29.50
2018-12-03T01:31:00.535Z,25.47
2018-12-03T01:33:29.056Z,27.63
2018-12-03T01:35:58.270Z,25.80
2018-12-03T01:38:26.671Z,31.80
2018-12-03T01:40:55.848Z,25.00
2018-12-03T01:43:24.536Z,24.47
2018-12-03T01:45:53.194Z,25.50
2018-12-03T01:48:21.685Z,26.70
2018-12-03T01:50:50.105Z,28.17
2018-12-03T01:53:19.023Z,32.33
2018-12-03T01:55:47.542Z,26.27
2018-12-03T01:58:16.087Z,27.83
2018-12-03T02:00:44.571Z,26.27
2018-12-03T02:03:13.440Z,29.40
2018-12-03T02:05:42.795Z,34.00
2018-12-03T02:08:11.279Z,28.90
2018-12-03T02:10:40.015Z,32.33
2018-12-03T02:13:08.499Z,29.50
2018-12-03T02:15:36.999Z,32.20
2018-12-03T02:18:06.308Z,29.63
2018-12-03T02:20:34.816Z,29.47
2018-12-03T02:23:03.300Z,28.07
2018-12-03T02:25:31.743Z,34.57
2018-12-03T02:28:00.215Z,29.03
2018-12-03T02:30:28.664Z,30.80
2018-12-03T02:32:57.162Z,29.67
2018-12-03T02:35:25.878Z,37.47
2018-12-03T02:37:54.264Z,31.40
2018-12-03T02:40:22.715Z,34.47
2018-12-03T02:42:51.143Z,28.37
2018-12-03T02:45:19.583Z,31.63
2018-12-03T02:47:48.136Z,31.30
2018-12-03T02:50:16.867Z,39.00
2018-12-03T02:52:45.284Z,28.80
2018-12-03T02:55:14.479Z,30.67
2018-12-03T02:57:43.024Z,28.57
2018-12-03T03:00:13.121Z,26.90
2018-12-03T03:02:42.035Z,26.60
2018-12-03T03:05:11.787Z,25.93
2018-12-03T03:07:40.481Z,25.13
2018-12-03T03:10:11.224Z,26.90
2018-12-03T03:12:39.853Z,26.20
2018-12-03T03:15:11.487Z,24.23
2018-12-03T03:17:40.420Z,27.50
2018-12-03T03:20:11.071Z,27.17
2018-12-03T03:22:39.540Z,26.73
2018-12-03T03:25:09.043Z,27.63
2018-12-03T03:27:38.433Z,31.60
2018-12-03T03:30:10.784Z,28.97
2018-12-03T03:32:39.287Z,29.43
2018-12-03T03:35:09.111Z,27.07
2018-12-03T03:37:37.829Z,27.70
2018-12-03T03:40:12.526Z,27.57
2018-12-03T03:42:41.785Z,34.13
2018-12-03T03:45:16.751Z,28.67
2018-12-03T03:47:46.010Z,31.33
2018-12-03T03:50:14.851Z,32.47
2018-12-03T03:52:43.887Z,30.57
2018-12-03T03:55:12.298Z,31.90
2018-12-03T03:57:40.807Z,28.23
2018-12-03T04:00:10.978Z,32.33
2018-12-03T04:02:40.262Z,28.60
2018-12-03T04:05:10.228Z,28.97
2018-12-03T04:07:38.927Z,26.70
2018-12-03T04:10:09.210Z,25.67
2018-12-03T04:12:37.614Z,25.10
2018-12-03T04:15:08.269Z,27.20
2018-12-03T04:17:37.000Z,29.87
2018-12-03T04:20:09.038Z,27.37
2018-12-03T04:22:37.420Z,28.93
2018-12-03T04:25:07.412Z,32.37
2018-12-03T04:27:36.131Z,31.23
2018-12-03T04:30:07.498Z,31.77
2018-12-03T04:32:35.959Z,29.93
2018-12-03T04:35:04.728Z,30.83
2018-12-03T04:37:33.136Z,30.30
2018-12-03T04:40:01.616Z,27.57
2018-12-03T04:42:30.043Z,27.37
2018-12-03T04:44:58.529Z,28.57
2018-12-03T04:47:26.990Z,29.40
2018-12-03T04:49:55.503Z,27.93
2018-12-03T04:52:24.119Z,27.83
2018-12-03T04:54:52.955Z,27.93
2018-12-03T04:57:22.336Z,28.50
2018-12-03T04:59:50.743Z,29.07
2018-12-03T05:02:19.162Z,28.90
2018-12-03T05:04:47.611Z,30.30
2018-12-03T05:07:16.105Z,27.70
2018-12-03T05:09:44.559Z,27.87
2018-12-03T05:12:13.327Z,27.70
2018-12-03T05:14:41.788Z,28.63
2018-12-03T05:17:11.519Z,30.20
2018-12-03T05:19:40.000Z,27.93
2018-12-03T05:22:08.405Z,28.60
2018-12-03T05:24:36.903Z,29.37
2018-12-03T05:27:06.455Z,29.57
2018-12-03T05:29:34.851Z,29.93
2018-12-03T05:32:03.279Z,29.77
2018-12-03T05:34:31.724Z,25.93
2018-12-03T05:37:00.127Z,26.40
2018-12-03T05:39:28.605Z,28.50
2018-12-03T05:41:57.091Z,28.10
2018-12-03T05:44:26.275Z,25.93
2018-12-03T05:46:55.371Z,25.23
2018-12-03T05:49:23.743Z,22.73
2018-12-03T05:51:52.142Z,23.70
2018-12-03T05:54:20.611Z,23.03
2018-12-03T05:56:49.021Z,24.40
2018-12-03T05:59:17.531Z,24.93
2018-12-03T06:01:45.982Z,24.90
2018-12-03T06:04:14.432Z,28.10
2018-12-03T06:06:42.938Z,28.73
2018-12-03T06:09:11.423Z,27.30
2018-12-03T06:11:39.899Z,31.60
2018-12-03T06:14:09.147Z,27.33
2018-12-03T06:16:37.619Z,38.03
2018-12-03T06:19:06.589Z,32.30
2018-12-03T06:21:35.199Z,28.60
2018-12-03T06:24:03.617Z,38.33
2018-12-03T06:26:31.979Z,26.60
2018-12-03T06:29:00.403Z,33.77
2018-12-03T06:31:28.818Z,26.53
2018-12-03T06:33:57.526Z,27.10
2018-12-03T06:36:25.916Z,26.40
2018-12-03T06:38:54.437Z,25.67
2018-12-03T06:41:22.851Z,27.20
2018-12-03T06:43:51.445Z,30.60
2018-12-03T06:46:19.831Z,27.63
2018-12-03T06:48:48.495Z,25.87
2018-12-03T06:51:17.042Z,33.10
2018-12-03T06:53:45.699Z,33.60
2018-12-03T06:56:14.374Z,30.77
2018-12-03T06:58:42.779Z,26.60
2018-12-03T07:01:11.236Z,33.37
2018-12-03T07:03:39.663Z,28.90
2018-12-03T07:06:08.118Z,26.60
2018-12-03T07:08:36.620Z,26.07
2018-12-03T07:11:05.586Z,39.83
2018-12-03T07:13:34.078Z,38.53
2018-12-03T07:16:02.617Z,33.83
2018-12-03T07:18:31.429Z,35.97
2018-12-03T07:20:59.843Z,32.60
2018-12-03T07:23:28.776Z,29.33
2018-12-03T07:25:57.311Z,29.57
2018-12-03T07:28:25.867Z,35.87
2018-12-03T07:30:54.515Z,26.10
2018-12-03T07:33:23.080Z,36.13
2018-12-03T07:35:52.191Z,26.57
2018-12-03T07:38:20.695Z,36.90
2018-12-03T07:40:49.396Z,24.63
2018-12-03T07:43:18.505Z,31.37
2018-12-03T07:45:47.015Z,27.10
2018-12-03T07:48:15.507Z,30.27
2018-12-03T07:50:44.023Z,28.03
2018-12-03T07:53:12.503Z,35.87
2018-12-03T07:55:40.982Z,26.53
2018-12-03T07:58:12.747Z,28.07
2018-12-03T08:00:46.128Z,25.97
2018-12-03T08:03:14.871Z,28.57
2018-12-03T08:05:43.783Z,26.07
2018-12-03T08:08:12.303Z,29.60
2018-12-03T08:10:42.392Z,31.80
2018-12-03T08:13:12.432Z,24.60
2018-12-03T08:15:40.886Z,40.63
2018-12-03T08:18:12.345Z,28.03
2018-12-03T08:21:11.783Z,30.03
2018-12-03T08:23:54.061Z,32.47
2018-12-03T08:26:22.511Z,27.80
2018-12-03T08:28:51.056Z,38.60
2018-12-03T08:31:19.485Z,26.60
2018-12-03T08:33:48.549Z,30.97
2018-12-03T08:36:17.114Z,30.93
2018-12-03T08:38:45.670Z,30.73
2018-12-03T08:41:14.714Z,38.97
2018-12-03T08:43:43.170Z,37.83
2018-12-03T08:46:12.289Z,34.43
2018-12-03T08:48:42.126Z,28.20
2018-12-03T08:51:11.655Z,28.53
2018-12-03T08:53:40.187Z,29.70
2018-12-03T08:56:08.631Z,30.00
2018-12-03T08:58:37.053Z,28.53
2018-12-03T09:01:11.804Z,30.00
2018-12-03T09:03:41.244Z,26.07
2018-12-03T09:06:12.073Z,32.97
2018-12-03T09:08:40.671Z,28.57
2018-12-03T09:11:11.571Z,35.73
2018-12-03T09:13:40.336Z,33.00
2018-12-03T09:16:08.743Z,23.57
2018-12-03T09:18:39.603Z,38.93
2018-12-03T09:21:14.156Z,43.63
2018-12-03T09:23:43.931Z,26.73
2018-12-03T09:26:13.040Z,24.13
2018-12-03T09:28:41.568Z,39.53
2018-12-03T09:31:10.127Z,27.60
2018-12-03T09:33:38.570Z,26.93
2018-12-03T09:36:07.347Z,34.47
2018-12-03T09:38:47.259Z,33.60
2018-12-03T09:41:15.856Z,26.90
2018-12-03T09:43:44.414Z,38.10
2018-12-03T09:46:12.921Z,27.90
2018-12-03T09:48:42.221Z,32.60
2018-12-03T09:51:10.808Z,38.57
2018-12-03T09:53:39.307Z,38.77
2018-12-03T09:56:07.731Z,28.27
2018-12-03T09:58:37.123Z,30.57
2018-12-03T10:01:10.571Z,32.73
2018-12-03T10:03:44.409Z,46.23
2018-12-03T10:06:15.605Z,35.70
2018-12-03T10:08:44.236Z,30.03
2018-12-03T10:11:12.743Z,40.47
2018-12-03T10:13:41.194Z,26.60
2018-12-03T10:16:09.999Z,39.83
2018-12-03T10:18:38.524Z,22.10
2018-12-03T10:21:07.026Z,31.70
2018-12-03T10:23:35.423Z,29.63
2018-12-03T10:26:08.074Z,33.90
2018-12-03T10:28:36.490Z,37.93
2018-12-03T10:31:05.233Z,55.47
2018-12-03T10:33:34.205Z,31.77
2018-12-03T10:36:05.169Z,34.00
2018-12-03T10:38:36.535Z,35.20
2018-12-03T10:41:09.899Z,44.13
2018-12-03T10:43:39.337Z,42.43
2018-12-03T10:46:09.203Z,32.90
2018-12-03T10:48:37.710Z,26.00
2018-12-03T10:51:11.015Z,46.93
2018-12-03T10:53:39.657Z,36.50
2018-12-03T10:56:08.196Z,33.63
2018-12-03T10:58:38.091Z,47.50
2018-12-03T11:01:13.663Z,28.57
2018-12-03T11:03:47.772Z,29.60
2018-12-03T11:06:17.953Z,38.27
2018-12-03T11:08:46.869Z,20.73
2018-12-03T11:11:15.690Z,36.27
2018-12-03T11:13:44.251Z,33.87
2018-12-03T11:16:28.723Z,27.37
2018-12-03T11:18:57.501Z,39.40
2018-12-03T11:21:26.960Z,29.83
2018-12-03T11:23:55.493Z,32.60
2018-12-03T11:26:30.181Z,33.07
2018-12-03T11:28:58.864Z,41.63
2018-12-03T11:31:30.033Z,37.00
2018-12-03T11:33:59.457Z,38.33
2018-12-03T11:36:39.187Z,34.83
2018-12-03T11:39:15.103Z,33.07
2018-12-03T11:41:43.579Z,27.30
2018-12-03T11:44:12.251Z,36.33
2018-12-03T11:46:40.793Z,28.37
2018-12-03T11:49:09.355Z,33.07
2018-12-03T11:51:37.841Z,28.03
2018-12-03T11:54:07.792Z,35.90
2018-12-03T11:56:36.272Z,31.80
2018-12-03T11:59:04.667Z,30.77
2018-12-03T12:01:33.078Z,40.03
2018-12-03T12:04:01.615Z,33.37
2018-12-03T12:06:30.096Z,35.43
2018-12-03T12:08:58.499Z,30.23
2018-12-03T12:11:27.047Z,37.03
2018-12-03T12:13:56.258Z,28.70
2018-12-03T12:16:24.711Z,29.27
2018-12-03T12:18:53.403Z,37.20
2018-12-03T12:21:21.907Z,35.70
2018-12-03T12:23:50.389Z,38.63
2018-12-03T12:26:18.791Z,31.10
2018-12-03T12:28:47.233Z,42.60
2018-12-03T12:31:15.915Z,29.57
2018-12-03T12:33:44.421Z,30.00
2018-12-03T12:36:12.978Z,28.43
2018-12-03T12:38:41.460Z,25.87
2018-12-03T12:41:09.911Z,36.77
2018-12-03T12:43:38.449Z,40.43
2018-12-03T12:46:10.163Z,34.97
2018-12-03T12:48:38.688Z,35.53
2018-12-03T12:51:07.213Z,43.07
2018-12-03T12:53:35.736Z,36.40
2018-12-03T12:56:04.329Z,42.63
2018-12-03T12:58:33.259Z,27.60
2018-12-03T13:01:01.671Z,33.83
2018-12-03T13:03:30.189Z,29.60
2018-12-03T13:05:58.652Z,37.37
2018-12-03T13:08:27.127Z,36.87
2018-12-03T13:10:55.596Z,38.43
2018-12-03T13:13:24.018Z,38.33
2018-12-03T13:15:52.475Z,39.70
2018-12-03T13:18:20.938Z,34.60
2018-12-03T13:20:49.888Z,35.40
2018-12-03T13:23:18.551Z,29.83
2018-12-03T13:25:47.087Z,27.83
2018-12-03T13:28:16.032Z,37.87
2018-12-03T13:30:44.473Z,38.03
2018-12-03T13:33:13.610Z,34.00
2018-12-03T13:35:42.216Z,32.63
2018-12-03T13:38:10.885Z,41.17
2018-12-03T13:40:40.067Z,35.47
2018-12-03T13:43:08.664Z,29.67
2018-12-03T13:45:37.888Z,38.70
2018-12-03T13:48:06.839Z,29.40
2018-12-03T13:50:35.263Z,48.03
2018-12-03T13:53:03.731Z,28.43
2018-12-03T13:55:32.302Z,40.63
2018-12-03T13:58:01.163Z,43.77
2018-12-03T14:00:29.983Z,38.17
2018-12-03T14:03:04.194Z,26.60
2018-12-03T14:05:35.671Z,32.13
2018-12-03T14:08:26.567Z,38.87
2018-12-03T14:11:08.299Z,35.83
2018-12-03T14:14:52.269Z,37.13
2018-12-03T14:17:29.642Z,24.80
2018-12-03T14:20:00.251Z,38.80
2018-12-03T14:22:33.787Z,42.20
2018-12-03T14:25:02.350Z,40.80
2018-12-03T14:27:30.747Z,42.10
2018-12-03T14:29:59.224Z,45.67
2018-12-03T14:32:27.995Z,36.07
2018-12-03T14:34:57.576Z,30.47
2018-12-03T14:37:26.127Z,34.33
2018-12-03T14:39:54.672Z,38.03
2018-12-03T14:42:23.523Z,37.33
2018-12-03T14:44:52.151Z,33.47
2018-12-03T14:47:20.643Z,45.20
2018-12-03T14:49:49.725Z,38.13
2018-12-03T14:52:18.575Z,38.83
2018-12-03T14:54:47.114Z,25.70
2018-12-03T14:57:16.417Z,40.20
2018-12-03T14:59:44.965Z,36.37
2018-12-03T15:02:13.496Z,42.67
2018-12-03T15:04:42.965Z,54.77
2018-12-03T15:07:11.605Z,38.73
2018-12-03T15:09:40.293Z,55.43
2018-12-03T15:12:08.759Z,35.93
2018-12-03T15:14:38.096Z,41.07
2018-12-03T15:17:06.595Z,39.33
2018-12-03T15:19:35.127Z,41.17
2018-12-03T15:22:03.634Z,39.93
2018-12-03T15:24:34.035Z,45.27
2018-12-03T15:27:02.499Z,44.87
2018-12-03T15:29:31.000Z,34.93
2018-12-03T15:32:00.256Z,49.47
2018-12-03T15:34:28.736Z,48.73
2018-12-03T15:36:57.462Z,47.70
2018-12-03T15:39:26.390Z,46.03
2018-12-03T15:41:54.994Z,40.60
2018-12-03T15:44:24.269Z,55.30
2018-12-03T15:46:52.779Z,33.90
2018-12-03T15:49:21.327Z,52.43
2018-12-03T15:51:49.952Z,36.43
2018-12-03T15:54:18.451Z,45.50
2018-12-03T15:56:46.995Z,50.47
2018-12-03T15:59:15.469Z,43.73
2018-12-03T16:01:43.928Z,45.70
2018-12-03T16:04:12.379Z,32.10
2018-12-03T16:06:41.323Z,46.03
2018-12-03T16:09:11.618Z,46.03
2018-12-03T16:11:40.517Z,43.10
2018-12-03T16:14:09.041Z,38.23
2018-12-03T16:16:37.560Z,56.67
2018-12-03T16:19:06.085Z,36.63
2018-12-03T16:21:34.523Z,44.17
2018-12-03T16:24:02.991Z,50.37
2018-12-03T16:26:32.271Z,34.57
2018-12-03T16:29:02.026Z,38.60
2018-12-03T16:31:30.523Z,40.27
2018-12-03T16:33:59.850Z,32.73
2018-12-03T16:36:28.303Z,47.90
2018-12-03T16:38:56.789Z,38.97
2018-12-03T16:41:25.975Z,41.07
2018-12-03T16:43:54.359Z,41.50
2018-12-03T16:46:23.382Z,45.13
2018-12-03T16:48:52.049Z,50.03
2018-12-03T16:51:20.505Z,35.77
2018-12-03T16:53:49.111Z,43.03
2018-12-03T16:56:17.599Z,33.40
2018-12-03T16:58:46.488Z,47.53
2018-12-03T17:01:14.987Z,43.00
2018-12-03T17:03:43.528Z,40.13
2018-12-03T17:06:11.954Z,36.60
2018-12-03T17:08:40.387Z,30.47
2018-12-03T17:11:09.153Z,33.70
2018-12-03T17:13:37.683Z,35.70
2018-12-03T17:16:06.174Z,27.23
2018-12-03T17:18:34.668Z,29.43
2018-12-03T17:21:09.296Z,30.67
2018-12-03T17:24:16.201Z,35.37
2018-12-03T17:26:45.049Z,34.67
2018-12-03T17:29:13.649Z,34.53
2018-12-03T17:31:42.092Z,34.33
2018-12-03T17:34:10.575Z,30.93
2018-12-03T17:36:39.182Z,44.17
2018-12-03T17:39:08.687Z,33.43
2018-12-03T17:41:37.189Z,39.17
2018-12-03T17:44:06.802Z,43.97
2018-12-03T17:46:35.406Z,30.77
2018-12-03T17:49:03.813Z,48.53
2018-12-03T19:04:54.521Z,26.80
2018-12-03T19:07:22.732Z,26.07
2018-12-03T19:09:51.000Z,23.97
2018-12-03T19:12:19.309Z,19.13
2018-12-03T19:14:47.598Z,33.93
2018-12-03T19:17:15.817Z,19.90
2018-12-03T19:19:43.996Z,28.03
2018-12-03T19:22:12.301Z,19.07
2018-12-03T19:24:40.553Z,26.23
2018-12-03T19:27:08.869Z,20.90
2018-12-03T19:29:38.948Z,27.20
2018-12-03T19:46:28.263Z,22.40
2018-12-03T19:48:56.469Z,19.63
2018-12-03T19:51:24.721Z,18.90
2018-12-03T19:53:54.344Z,24.77
2018-12-03T19:56:22.649Z,21.80
2018-12-03T19:58:52.524Z,19.03
2018-12-03T20:01:20.941Z,19.00
2018-12-03T20:03:49.112Z,22.30
2018-12-03T20:06:17.389Z,26.97
2018-12-03T20:08:45.628Z,20.40
2018-12-03T20:11:13.908Z,26.37
2018-12-03T20:13:42.217Z,17.97
2018-12-03T20:16:10.877Z,18.07
2018-12-03T20:18:39.589Z,19.77
2018-12-03T20:21:11.717Z,18.07
2018-12-03T20:23:46.068Z,16.60
2018-12-03T20:26:24.668Z,18.60
2018-12-03T20:29:35.189Z,19.17
2018-12-03T20:33:17.880Z,17.60
2018-12-03T20:35:53.737Z,16.53
2018-12-03T20:39:02.544Z,17.80
2018-12-03T20:41:34.857Z,15.60
2018-12-03T20:44:11.543Z,20.87
2018-12-03T20:46:47.957Z,17.80
2018-12-03T20:49:57.584Z,17.90
2018-12-03T20:52:28.565Z,16.37
2018-12-03T20:54:59.977Z,21.37
2018-12-03T20:57:28.298Z,16.23
2018-12-03T20:59:56.574Z,23.33
2018-12-03T21:02:25.862Z,18.93
2018-12-03T21:04:54.097Z,18.60
2018-12-03T21:07:22.402Z,18.13
2018-12-03T21:09:50.710Z,21.80
2018-12-03T21:12:18.896Z,20.30
2018-12-03T21:14:47.437Z,18.47
2018-12-03T21:17:15.969Z,16.53
2018-12-03T21:19:46.108Z,19.83
2018-12-03T21:22:14.316Z,16.53
2018-12-03T21:24:42.591Z,21.37
2018-12-03T21:27:11.101Z,16.17
2018-12-03T21:29:39.352Z,16.53
2018-12-03T21:32:07.549Z,15.50
2018-12-03T21:34:35.828Z,17.60
2018-12-03T21:37:04.132Z,17.30
2018-12-03T21:39:32.317Z,15.27
2018-12-03T21:42:00.511Z,17.43
2018-12-03T21:44:28.784Z,15.10
2018-12-03T21:46:57.000Z,15.97
2018-12-03T21:49:25.296Z,15.37
2018-12-03T21:51:53.594Z,18.83
2018-12-03T21:54:21.777Z,14.93
2018-12-03T21:56:49.988Z,15.43
2018-12-03T21:59:18.541Z,15.00
2018-12-03T22:01:46.729Z,15.83
2018-12-03T22:04:14.955Z,17.50
2018-12-03T22:06:43.145Z,13.63
2018-12-03T22:09:11.401Z,15.03
2018-12-03T22:11:39.650Z,16.43
2018-12-03T22:14:07.956Z,17.03
2018-12-03T22:16:36.513Z,15.30
2018-12-03T22:19:04.781Z,14.77
2018-12-03T22:21:33.089Z,20.00
2018-12-03T22:24:01.353Z,18.23
2018-12-03T22:26:29.653Z,16.37
2018-12-03T22:28:57.945Z,15.70
2018-12-03T22:31:26.184Z,14.93
2018-12-03T22:33:54.373Z,22.17
2018-12-03T22:36:22.761Z,15.63
2018-12-03T22:38:50.969Z,18.50
2018-12-03T22:41:19.186Z,21.13
2018-12-03T22:43:47.592Z,15.37
2018-12-03T22:46:15.761Z,18.33
2018-12-03T22:48:44.105Z,16.43
2018-12-03T22:51:12.416Z,16.37
2018-12-03T22:53:40.744Z,16.00
2018-12-03T22:56:09.088Z,16.67
2018-12-03T22:58:37.352Z,16.10
2018-12-03T23:01:08.025Z,15.83
2018-12-03T23:03:36.253Z,16.40
2018-12-03T23:06:04.476Z,17.97
2018-12-03T23:08:32.921Z,15.70
2018-12-03T23:11:01.165Z,16.60
2018-12-03T23:13:30.317Z,16.00
2018-12-03T23:15:58.580Z,15.73
2018-12-03T23:18:26.765Z,17.60
2018-12-03T23:20:54.992Z,15.80
2018-12-03T23:23:23.308Z,16.17
2018-12-03T23:25:53.278Z,15.97
2018-12-03T23:28:21.496Z,16.13
2018-12-03T23:30:49.724Z,16.27
2018-12-03T23:33:17.932Z,15.27
2018-12-03T23:35:46.125Z,16.67
2018-12-03T23:38:14.335Z,15.30
2018-12-03T23:40:42.554Z,15.27
2018-12-03T23:43:10.861Z,15.83
2018-12-03T23:45:39.121Z,17.83
2018-12-03T23:48:07.692Z,21.83
2018-12-03T23:50:35.953Z,15.67
2018-12-03T23:53:04.272Z,15.47
2018-12-03T23:55:32.512Z,16.40
2018-12-03T23:58:00.688Z,19.83
